createdAt,value
2018-10-07T05:05:38.682Z,94821.47
2018-10-07T05:10:42.002Z,94820.48
2018-10-07T05:15:45.341Z,94822.62
2018-10-07T05:20:48.707Z,94827.39
2018-10-07T05:25:52.028Z,94829.80
2018-10-07T05:30:55.362Z,94837.61
2018-10-07T05:35:58.727Z,94840.42
2018-10-07T05:41:02.826Z,94844.72
2018-10-07T05:46:06.163Z,94853.98
2018-10-07T05:51:10.262Z,94858.70
2018-10-07T05:56:13.607Z,94858.98
2018-10-07T06:01:17.699Z,94867.20
2018-10-07T06:06:21.037Z,94872.72
2018-10-07T06:11:25.134Z,94879.84
2018-10-07T06:16:28.468Z,94887.11
2018-10-07T06:21:31.852Z,94889.14
2018-10-07T06:26:35.904Z,94901.34
2018-10-07T06:31:39.256Z,94904.38
2018-10-07T06:36:43.347Z,94915.61
2018-10-07T06:41:46.681Z,94913.73
2018-10-07T06:46:50.006Z,94915.67
2018-10-07T06:51:54.090Z,94923.38
2018-10-07T06:56:57.455Z,94929.34
2018-10-07T07:02:01.558Z,94940.80
2018-10-07T07:07:19.621Z,94942.37
2018-10-07T07:12:24.058Z,94950.38
2018-10-07T07:17:34.016Z,94959.77
2018-10-07T07:22:37.350Z,94963.05
2018-10-07T07:27:40.681Z,94971.76
2018-10-07T07:32:45.827Z,94975.17
2018-10-07T07:37:49.922Z,94987.34
2018-10-07T07:42:53.280Z,94998.36
2018-10-07T07:47:57.792Z,95002.31
2018-10-07T07:53:01.342Z,95001.09
2018-10-07T08:03:14.875Z,95008.39
2018-10-07T08:08:19.299Z,95006.89
2018-10-07T08:13:24.534Z,95013.90
2018-10-07T08:18:28.524Z,95021.03
2018-10-07T08:23:33.057Z,95027.10
2018-10-07T08:28:37.854Z,95026.91
2018-10-07T08:33:41.381Z,95029.75
2018-10-07T08:38:45.979Z,95030.30
2018-10-07T08:43:55.158Z,95032.07
2018-10-07T08:48:58.681Z,95025.67
2018-10-07T08:54:02.222Z,95025.67
2018-10-07T08:59:06.521Z,95034.06
2018-10-07T09:04:10.052Z,95043.47
2018-10-07T09:09:13.416Z,95045.47
2018-10-07T09:14:16.837Z,95048.56
2018-10-07T09:19:21.104Z,95051.16
2018-10-07T09:24:24.578Z,95047.01
2018-10-07T09:29:27.952Z,95054.66
2018-10-07T09:34:31.287Z,95057.27
2018-10-07T09:39:34.733Z,95064.06
2018-10-07T09:44:38.423Z,95075.87
2018-10-07T09:49:41.904Z,95076.55
2018-10-07T09:54:46.372Z,95065.59
2018-10-07T09:59:50.036Z,95066.78
2018-10-07T10:04:53.441Z,95061.72
2018-10-07T10:09:57.665Z,95061.42
2018-10-07T10:15:01.202Z,95064.41
2018-10-07T10:20:04.720Z,95071.26
2018-10-07T10:25:08.317Z,95076.08
2018-10-07T10:30:12.596Z,95078.88
2018-10-07T10:35:16.147Z,95081.83
2018-10-07T10:40:19.654Z,95084.97
2018-10-07T10:45:23.169Z,95086.02
2018-10-07T10:50:26.619Z,95084.09
2018-10-07T10:55:30.064Z,95086.36
2018-10-07T11:00:33.726Z,95086.64
2018-10-07T11:05:37.237Z,95090.58
2018-10-07T11:10:40.858Z,95096.11
2018-10-07T11:15:44.521Z,95098.16
2018-10-07T11:20:47.960Z,95092.83
2018-10-07T11:25:52.308Z,95086.28
2018-10-07T11:30:56.193Z,95087.61
2018-10-07T11:36:00.136Z,95093.06
2018-10-07T11:41:03.691Z,95098.95
2018-10-07T11:46:07.295Z,95093.60
2018-10-07T11:51:10.988Z,95091.50
2018-10-07T11:56:15.244Z,95099.25
2018-10-07T12:01:18.739Z,95084.03
2018-10-07T12:06:22.112Z,95087.02
2018-10-07T12:11:25.593Z,95097.77
2018-10-07T12:16:29.853Z,95096.42
2018-10-07T12:21:33.277Z,95099.47
2018-10-07T12:26:36.768Z,95092.22
2018-10-07T12:31:40.839Z,95102.41
2018-10-07T12:36:45.122Z,95099.02
2018-10-07T12:41:49.298Z,95105.36
2018-10-07T12:46:52.836Z,95097.96
2018-10-07T12:51:57.124Z,95102.13
2018-10-07T12:57:00.553Z,95107.23
2018-10-07T13:02:04.835Z,95103.11
2018-10-07T13:07:26.719Z,95106.41
2018-10-07T13:12:30.311Z,95108.08
2018-10-07T13:17:47.411Z,95113.02
2018-10-07T13:22:51.535Z,95107.75
2018-10-07T13:28:07.337Z,95104.32
2018-10-07T13:33:10.791Z,95112.88
2018-10-07T13:38:27.591Z,95125.84
2018-10-07T13:43:30.936Z,95124.67
2018-10-07T13:48:35.032Z,95125.42
2018-10-07T13:53:38.430Z,95132.33
2018-10-07T13:58:41.706Z,95141.24
2018-10-07T14:03:45.447Z,95138.11
2018-10-07T14:08:49.569Z,95139.16
2018-10-07T14:13:52.904Z,95133.47
2018-10-07T14:18:57.447Z,95136.77
2018-10-07T14:24:00.889Z,95141.94
2018-10-07T14:29:04.152Z,95136.61
2018-10-07T14:34:07.491Z,95135.66
2018-10-07T14:39:10.876Z,95133.83
2018-10-07T14:44:14.931Z,95136.00
2018-10-07T14:49:18.340Z,95135.17
2018-10-07T14:54:22.371Z,95144.05
2018-10-07T14:59:25.702Z,95145.15
2018-10-07T15:04:29.043Z,95146.84
2018-10-07T15:09:33.162Z,95148.50
2018-10-07T15:14:38.048Z,95152.17
2018-10-07T15:19:43.924Z,95158.91
2018-10-07T15:24:47.274Z,95163.63
2018-10-07T15:29:51.441Z,95159.86
2018-10-07T15:34:54.748Z,95156.61
2018-10-07T15:39:58.835Z,95167.20
2018-10-07T15:45:02.164Z,95169.73
2018-10-07T15:50:05.503Z,95176.65
2018-10-07T15:55:09.625Z,95184.00
2018-10-07T16:00:13.724Z,95180.98
2018-10-07T16:05:17.183Z,95189.88
2018-10-07T16:10:20.980Z,95193.36
2018-10-07T16:15:24.332Z,95211.77
2018-10-07T16:20:27.683Z,95216.94
2018-10-07T16:25:31.015Z,95229.39
2018-10-07T16:30:34.350Z,95232.90
2018-10-07T16:35:38.443Z,95240.55
2018-10-07T16:40:41.796Z,95241.03
2018-10-07T16:45:45.908Z,95244.44
2018-10-07T16:50:49.245Z,95244.33
2018-10-07T16:55:52.583Z,95246.78
2018-10-07T17:00:55.906Z,95260.67
2018-10-07T17:05:59.229Z,95261.33
2018-10-07T17:11:02.548Z,95268.22
2018-10-07T17:16:05.883Z,95264.00
2018-10-07T17:21:09.307Z,95267.70
2018-10-07T17:26:12.615Z,95279.18
2018-10-07T17:31:15.958Z,95279.07
2018-10-07T17:36:19.288Z,95286.40
2018-10-07T17:41:22.620Z,95286.98
2018-10-07T17:46:25.963Z,95295.84
2018-10-07T17:51:29.296Z,95305.09
2018-10-07T17:56:33.401Z,95310.81
2018-10-07T18:01:36.799Z,95317.33
2018-10-07T18:06:40.088Z,95328.27
2018-10-07T18:11:43.420Z,95328.11
2018-10-07T18:16:46.754Z,95330.43
2018-10-07T18:21:50.150Z,95328.11
2018-10-07T18:26:53.443Z,95330.91
2018-10-07T18:31:56.785Z,95334.86
2018-10-07T18:37:00.134Z,95343.56
2018-10-07T18:42:04.228Z,95341.95
2018-10-07T18:47:07.561Z,95349.24
2018-10-07T18:52:11.659Z,95353.76
2018-10-07T18:57:15.764Z,95355.76
2018-10-07T19:02:19.969Z,95365.28
2018-10-07T19:07:23.474Z,95369.97
2018-10-07T19:12:26.827Z,95377.37
2018-10-07T19:17:55.231Z,95378.00
2018-10-07T19:22:58.569Z,95387.98
2018-10-07T19:28:07.209Z,95390.14
2018-10-07T19:33:10.544Z,95396.13
2018-10-07T19:38:29.728Z,95392.20
2018-10-07T19:43:33.113Z,95400.66
2018-10-07T19:48:36.412Z,95400.56
2018-10-07T19:53:39.802Z,95396.00
2018-10-07T19:58:43.136Z,95400.08
2018-10-07T20:03:46.462Z,95400.28
2018-10-07T20:08:49.793Z,95411.18
2018-10-07T20:13:54.004Z,95418.16
2018-10-07T20:18:57.629Z,95414.11
2018-10-07T20:24:00.962Z,95417.38
2018-10-07T20:29:04.303Z,95416.59
2018-10-07T20:34:08.390Z,95424.27
2018-10-07T20:39:11.731Z,95437.32
2018-10-07T20:44:15.824Z,95439.72
2018-10-07T20:49:19.171Z,95440.75
2018-10-07T20:54:22.511Z,95436.70
2018-10-07T20:59:25.854Z,95435.87
2018-10-07T21:04:29.185Z,95438.78
2018-10-07T21:09:32.503Z,95433.27
2018-10-07T21:14:35.860Z,95443.73
2018-10-07T21:19:39.195Z,95453.63
2018-10-07T21:24:42.543Z,95456.36
2018-10-07T21:29:46.760Z,95455.02
2018-10-07T21:34:51.171Z,95464.14
2018-10-07T21:39:54.508Z,95464.41
2018-10-07T21:44:57.842Z,95466.22
2018-10-07T21:50:01.191Z,95466.55
2018-10-07T21:55:04.530Z,95471.31
2018-10-07T22:00:07.914Z,95466.14
2018-10-07T22:05:11.248Z,95472.68
2018-10-07T22:10:14.578Z,95475.80
2018-10-07T22:15:17.921Z,95470.56
2018-10-07T22:20:21.256Z,95470.84
2018-10-07T22:25:25.357Z,95474.12
2018-10-07T22:30:28.689Z,95481.77
2018-10-07T22:35:32.015Z,95480.95
2018-10-07T22:40:35.351Z,95481.66
2018-10-07T22:45:38.679Z,95491.15
2018-10-07T22:50:42.035Z,95495.41
2018-10-07T22:55:45.373Z,95492.34
2018-10-07T23:00:49.471Z,95498.26
2018-10-07T23:11:40.495Z,95483.67
